Time;durP1;ratioP1;P1;durP2;ratioP2;P2;SDS_P1;SDS_P2;PMS_P1;PMS_P2;Temp;Humidity;BMP_temperature;BMP_pressure;BME280_temperature;BME280_humidity;BME280_pressure;Samples;Min_cycle;Max_cycle;Signal;HPM_P1;HPM_P2
2022/05/30 00:00:07;;;;;;;2.53;2.17;;;12.30;94.60;;;;;;4996366;28;20042;-72
2022/05/30 00:02:34;;;;;;;3.20;2.10;;;12.30;94.50;;;;;;4994890;28;20465;-71
2022/05/30 00:05:01;;;;;;;2.38;2.15;;;12.30;94.40;;;;;;4995875;28;20205;-72
2022/05/30 00:07:27;;;;;;;3.28;2.47;;;12.30;94.40;;;;;;4989989;28;20029;-71
2022/05/30 00:09:54;;;;;;;2.58;2.38;;;12.30;94.40;;;;;;4990877;28;20823;-72
2022/05/30 00:12:20;;;;;;;2.42;2.13;;;12.30;94.40;;;;;;4998258;28;20021;-72
2022/05/30 00:14:45;;;;;;;2.38;2.00;;;12.30;94.40;;;;;;4995644;28;20041;-72
2022/05/30 00:17:12;;;;;;;3.58;2.28;;;12.30;94.40;;;;;;4989858;28;20038;-71
2022/05/30 00:19:38;;;;;;;3.22;2.10;;;12.30;94.50;;;;;;4991353;28;20079;-71
2022/05/30 00:22:05;;;;;;;2.60;2.40;;;12.30;94.40;;;;;;4989140;28;20108;-71
2022/05/30 00:24:32;;;;;;;2.85;2.22;;;12.30;94.50;;;;;;4978195;28;20042;-72
2022/05/30 00:26:58;;;;;;;2.40;2.15;;;12.30;94.50;;;;;;4994365;28;20379;-71
2022/05/30 00:29:25;;;;;;;3.30;2.28;;;12.30;94.50;;;;;;4989779;28;20056;-72
2022/05/30 00:31:51;;;;;;;2.83;1.92;;;12.30;94.50;;;;;;4981269;28;20413;-71
2022/05/30 00:34:20;;;;;;;3.38;2.35;;;12.30;94.50;;;;;;4992960;28;20018;-72
2022/05/30 00:36:46;;;;;;;3.53;2.20;;;12.30;94.60;;;;;;4992796;28;20037;-71
2022/05/30 00:39:12;;;;;;;3.33;2.60;;;12.30;94.50;;;;;;4991842;28;20034;-72
2022/05/30 00:41:38;;;;;;;6.05;2.70;;;12.40;94.50;;;;;;4994799;28;20037;-71
2022/05/30 00:44:04;;;;;;;4.25;2.53;;;12.40;94.30;;;;;;4975447;28;20443;-72
2022/05/30 00:46:30;;;;;;;3.85;2.70;;;12.40;94.30;;;;;;4994135;28;20022;-71
2022/05/30 00:49:03;;;;;;;4.03;2.97;;;12.40;94.40;;;;;;4996547;28;20033;-72
2022/05/30 00:51:34;;;;;;;5.32;2.80;;;12.40;94.30;;;;;;4996446;28;20034;-71
2022/05/30 00:54:02;;;;;;;5.35;2.85;;;12.50;94.40;;;;;;4994420;28;20043;-72
2022/05/30 00:56:34;;;;;;;3.67;2.72;;;12.40;94.30;;;;;;4974070;28;20777;-72
2022/05/30 00:59:01;;;;;;;2.80;2.50;;;12.50;94.30;;;;;;4998896;28;20061;-72
2022/05/30 01:01:28;;;;;;;4.00;3.13;;;12.50;94.30;;;;;;4994527;28;20018;-72
2022/05/30 01:06:43;;;;;;;5.43;2.65;;;12.50;94.50;;;;;;4973761;28;20026;-73
2022/05/30 01:09:12;;;;;;;3.65;2.92;;;12.50;94.30;;;;;;4998464;28;20033;-71
2022/05/30 01:11:57;;;;;;;4.88;2.83;;;12.50;94.60;;;;;;4985840;28;20076;-71
2022/05/30 01:14:26;;;;;;;4.15;3.38;;;12.50;94.30;;;;;;4997930;28;20037;-73
2022/05/30 01:16:52;;;;;;;4.88;2.85;;;12.50;94.30;;;;;;4986001;28;20033;-72
2022/05/30 01:19:52;;;;;;;6.50;2.97;;;12.50;94.30;;;;;;4994353;28;20648;-71
2022/05/30 01:22:48;;;;;;;6.50;4.22;;;12.50;94.40;;;;;;4985913;28;20398;-72
2022/05/30 01:25:28;;;;;;;7.10;3.33;;;12.50;94.40;;;;;;4975973;28;20022;-71
2022/05/30 01:28:08;;;;;;;3.83;3.45;;;12.50;94.40;;;;;;4995013;28;20034;-72
2022/05/30 01:30:40;;;;;;;4.32;3.45;;;12.50;94.30;;;;;;4978876;28;20045;-72
2022/05/30 01:33:07;;;;;;;3.58;3.22;;;12.50;94.20;;;;;;4988742;28;20038;-73
2022/05/30 01:35:33;;;;;;;4.72;3.13;;;12.50;94.10;;;;;;4978310;28;20531;-71
2022/05/30 01:38:03;;;;;;;3.72;3.13;;;12.60;94.00;;;;;;4983733;28;20571;-72
2022/05/30 01:40:31;;;;;;;3.90;3.50;;;12.60;94.00;;;;;;4985885;28;20112;-72
2022/05/30 01:42:57;;;;;;;4.47;3.63;;;12.50;94.00;;;;;;4998002;28;20441;-72
2022/05/30 01:45:25;;;;;;;4.18;3.60;;;12.50;94.00;;;;;;4981012;28;20030;-71
2022/05/30 01:47:52;;;;;;;5.00;3.17;;;12.50;94.10;;;;;;4979244;28;20204;-72
2022/05/30 01:50:18;;;;;;;6.25;3.60;;;12.50;94.00;;;;;;4985027;28;20164;-72
2022/05/30 01:52:45;;;;;;;3.05;2.70;;;12.50;94.00;;;;;;4977080;28;20049;-72
2022/05/30 01:55:13;;;;;;;3.40;2.90;;;12.50;93.90;;;;;;4981989;28;20033;-71
2022/05/30 01:57:54;;;;;;;4.03;2.95;;;12.50;93.90;;;;;;4979010;28;20030;-71
2022/05/30 02:00:42;;;;;;;3.38;3.00;;;12.50;93.90;;;;;;4992715;28;20681;-72
2022/05/30 02:03:08;;;;;;;5.25;2.78;;;12.50;94.00;;;;;;4983747;28;20033;-72
2022/05/30 02:05:34;;;;;;;4.22;2.53;;;12.50;94.00;;;;;;4995632;28;20070;-71
2022/05/30 02:08:01;;;;;;;4.32;2.53;;;12.50;93.90;;;;;;4976398;28;20026;-71
2022/05/30 02:10:30;;;;;;;3.13;2.47;;;12.50;94.20;;;;;;4993927;28;20026;-71
2022/05/30 02:12:58;;;;;;;4.57;2.95;;;12.50;93.90;;;;;;4975115;28;20026;-71
2022/05/30 02:18:29;;;;;;;4.13;2.97;;;12.50;93.90;;;;;;4982840;28;20044;-72
2022/05/30 02:20:55;;;;;;;5.80;2.97;;;12.50;93.90;;;;;;5000680;28;20510;-72
2022/05/30 02:23:21;;;;;;;5.32;2.80;;;12.50;94.20;;;;;;4982658;28;20034;-71
2022/05/30 02:25:48;;;;;;;4.25;3.13;;;12.50;93.80;;;;;;4980050;28;20730;-72
2022/05/30 02:28:15;;;;;;;5.20;2.67;;;12.50;93.90;;;;;;4982827;28;20030;-71
2022/05/30 02:30:41;;;;;;;3.90;2.42;;;12.50;93.80;;;;;;4975372;28;20026;-72
2022/05/30 02:38:36;;;;;;;4.15;2.35;;;12.50;93.50;;;;;;4996915;28;20042;-71
2022/05/30 02:41:20;;;;;;;5.25;2.28;;;12.50;93.50;;;;;;4999278;28;20481;-72
2022/05/30 02:43:57;;;;;;;7.18;2.75;;;12.50;93.50;;;;;;4970309;28;20585;-72
2022/05/30 02:46:24;;;;;;;4.97;2.55;;;12.50;93.40;;;;;;4983386;28;20033;-72
2022/05/30 02:48:51;;;;;;;4.85;2.50;;;12.50;93.30;;;;;;4976185;28;20406;-72
2022/05/30 02:51:17;;;;;;;4.15;2.28;;;12.50;93.10;;;;;;4981825;28;20167;-72
2022/05/30 02:53:43;;;;;;;9.27;2.20;;;12.50;93.00;;;;;;4978790;28;20029;-71
2022/05/30 02:56:49;;;;;;;4.32;2.20;;;12.50;92.90;;;;;;4988371;28;20133;-73
2022/05/30 02:59:15;;;;;;;4.95;2.22;;;12.50;92.90;;;;;;4981934;28;20030;-72
2022/05/30 03:01:48;;;;;;;4.07;2.20;;;12.50;92.80;;;;;;4979133;28;20026;-72
2022/05/30 03:04:15;;;;;;;6.38;2.40;;;12.50;92.70;;;;;;4983087;28;20041;-72
2022/05/30 03:06:42;;;;;;;5.38;2.28;;;12.50;92.70;;;;;;4987811;28;20051;-72
2022/05/30 03:09:10;;;;;;;7.82;2.60;;;12.40;92.60;;;;;;4978696;28;20045;-72
2022/05/30 03:12:14;;;;;;;7.20;2.30;;;12.40;92.60;;;;;;4940908;28;20046;-72
2022/05/30 03:14:40;;;;;;;10.73;2.50;;;12.40;92.40;;;;;;4922155;29;20409;-73
2022/05/30 03:17:07;;;;;;;10.52;2.42;;;12.40;92.30;;;;;;4962736;28;20042;-71
2022/05/30 03:19:36;;;;;;;4.65;2.20;;;12.40;92.20;;;;;;4977452;28;20034;-71
2022/05/30 03:22:01;;;;;;;6.20;2.40;;;12.40;92.20;;;;;;4995046;28;20835;-72
2022/05/30 03:24:30;;;;;;;6.85;2.50;;;12.40;92.20;;;;;;4982201;28;20030;-71
2022/05/30 03:26:57;;;;;;;7.07;2.35;;;12.40;92.20;;;;;;4976545;28;20121;-71
2022/05/30 03:29:23;;;;;;;5.30;2.13;;;12.40;92.20;;;;;;4980723;28;20029;-72
2022/05/30 03:31:50;;;;;;;5.10;2.50;;;12.40;92.00;;;;;;4981934;28;20034;-72
2022/05/30 03:34:16;;;;;;;5.60;2.42;;;12.40;91.90;;;;;;4975853;28;20037;-71
2022/05/30 03:36:42;;;;;;;6.45;2.38;;;12.40;92.00;;;;;;4995259;28;20068;-71
2022/05/30 03:39:27;;;;;;;7.63;2.33;;;12.50;92.00;;;;;;4989453;28;20084;-72
2022/05/30 03:42:19;;;;;;;5.60;2.10;;;12.50;91.90;;;;;;4966626;28;20034;-72
2022/05/30 03:45:13;;;;;;;5.53;2.60;;;12.50;91.90;;;;;;4993686;28;20045;-72
2022/05/30 03:47:43;;;;;;;7.70;2.25;;;12.50;91.90;;;;;;4995232;28;20041;-72
2022/05/30 03:50:22;;;;;;;6.03;2.42;;;12.50;91.80;;;;;;4982067;28;20112;-71
2022/05/30 03:52:48;;;;;;;7.03;2.47;;;12.50;91.70;;;;;;4986767;28;20646;-71
2022/05/30 03:55:19;;;;;;;5.38;2.00;;;12.50;91.80;;;;;;4982498;28;20065;-71
2022/05/30 03:57:45;;;;;;;8.88;2.20;;;12.50;91.70;;;;;;4977754;28;20031;-71
2022/05/30 04:00:18;;;;;;;5.80;1.90;;;12.50;91.70;;;;;;4994402;28;20030;-71
2022/05/30 04:02:47;;;;;;;6.05;2.03;;;12.50;91.60;;;;;;4994751;28;20081;-71
2022/05/30 04:05:16;;;;;;;10.23;2.30;;;12.50;91.30;;;;;;4979826;28;20028;-71
2022/05/30 04:07:45;;;;;;;9.50;2.38;;;12.60;91.20;;;;;;4975732;28;20660;-71
2022/05/30 04:10:31;;;;;;;9.43;2.13;;;12.60;91.10;;;;;;4995826;28;20035;-72
2022/05/30 04:13:24;;;;;;;6.68;2.22;;;12.60;91.10;;;;;;4979773;28;20038;-71
2022/05/30 04:16:13;;;;;;;6.75;1.70;;;12.70;91.00;;;;;;4983767;28;20672;-71
2022/05/30 04:18:40;;;;;;;9.43;2.10;;;12.70;91.00;;;;;;4979975;28;20030;-72
2022/05/30 04:21:08;;;;;;;5.40;1.80;;;12.70;90.80;;;;;;4978208;28;20143;-72
2022/05/30 04:23:34;;;;;;;7.03;2.00;;;12.70;90.70;;;;;;4974309;28;20619;-72
2022/05/30 04:26:05;;;;;;;6.53;2.10;;;12.80;90.60;;;;;;4979076;28;20033;-71
2022/05/30 04:28:31;;;;;;;6.97;2.00;;;12.80;90.40;;;;;;4978629;28;20034;-72
2022/05/30 04:31:20;;;;;;;12.93;2.10;;;12.90;90.20;;;;;;4961667;28;20046;-72
2022/05/30 04:33:46;;;;;;;6.18;1.65;;;13.00;90.00;;;;;;4976757;28;20030;-71
2022/05/30 04:36:14;;;;;;;4.18;1.80;;;12.90;90.00;;;;;;4984564;28;20092;-71
2022/05/30 04:38:44;;;;;;;6.43;1.55;;;13.00;90.10;;;;;;4968882;28;20045;-71
2022/05/30 04:41:28;;;;;;;6.82;2.58;;;13.00;90.10;;;;;;4996087;28;20064;-72
2022/05/30 04:44:26;;;;;;;5.03;2.20;;;13.10;89.80;;;;;;4978831;28;20030;-71
2022/05/30 04:47:27;;;;;;;8.20;1.92;;;13.20;89.50;;;;;;4982572;28;20064;-72
2022/05/30 04:49:52;;;;;;;8.55;2.28;;;13.30;89.30;;;;;;4985522;28;20129;-71
2022/05/30 04:52:22;;;;;;;7.43;2.17;;;13.30;88.50;;;;;;4985431;28;20037;-71
2022/05/30 04:54:49;;;;;;;13.18;2.30;;;13.40;88.50;;;;;;4984490;28;20034;-71
2022/05/30 04:57:43;;;;;;;7.13;1.83;;;13.40;88.40;;;;;;4998066;28;20069;-71
2022/05/30 05:00:28;;;;;;;5.35;1.55;;;13.40;87.90;;;;;;4984744;28;20509;-72
2022/05/30 05:02:56;;;;;;;8.48;2.05;;;13.40;87.80;;;;;;4977845;28;20057;-72
2022/05/30 05:05:22;;;;;;;9.02;2.00;;;13.50;88.10;;;;;;4981965;28;20036;-72
2022/05/30 05:08:05;;;;;;;9.48;1.80;;;13.40;87.60;;;;;;4985870;28;20022;-71
2022/05/30 05:10:47;;;;;;;7.82;2.13;;;13.50;87.00;;;;;;4979563;28;20034;-71
2022/05/30 05:13:31;;;;;;;9.80;1.98;;;13.60;87.00;;;;;;4997818;28;20065;-71
2022/05/30 05:16:18;;;;;;;9.63;1.95;;;13.60;86.20;;;;;;4991649;28;20409;-72
2022/05/30 05:18:43;;;;;;;7.68;2.40;;;13.70;85.80;;;;;;4984552;28;20041;-71
2022/05/30 05:21:42;;;;;;;11.20;2.10;;;13.70;85.30;;;;;;4967592;28;20834;-72
2022/05/30 05:24:08;;;;;;;10.70;2.00;;;13.80;85.50;;;;;;4989968;28;20046;-71
2022/05/30 05:26:54;;;;;;;;;;;13.70;85.00;;;;;;4997892;28;20093;-71
2022/05/30 05:29:20;;;;;;;7.88;2.20;;;13.70;84.80;;;;;;4983941;28;19913;-72
2022/05/30 05:31:47;;;;;;;8.55;2.17;;;13.80;84.80;;;;;;4997444;28;20119;-72
2022/05/30 05:34:16;;;;;;;11.13;2.53;;;13.90;84.10;;;;;;4985460;28;20057;-72
2022/05/30 05:36:46;;;;;;;10.60;2.40;;;14.00;83.60;;;;;;4995426;28;20065;-72
2022/05/30 05:39:14;;;;;;;10.90;2.45;;;14.10;83.10;;;;;;4981393;28;20679;-72
2022/05/30 05:41:54;;;;;;;6.28;2.03;;;14.10;82.90;;;;;;4984358;28;20034;-72
2022/05/30 05:44:20;;;;;;;6.43;2.03;;;14.10;82.30;;;;;;4984842;28;20056;-72
2022/05/30 05:46:47;;;;;;;12.27;2.25;;;14.10;82.20;;;;;;4984609;28;20060;-72
2022/05/30 05:49:13;;;;;;;6.22;1.65;;;14.10;82.20;;;;;;4985566;28;20133;-71
2022/05/30 05:51:40;;;;;;;9.60;2.08;;;14.00;82.00;;;;;;4981577;28;20034;-72
2022/05/30 05:54:09;;;;;;;5.13;1.90;;;13.90;82.40;;;;;;4974988;28;20793;-72
2022/05/30 05:56:36;;;;;;;9.25;2.40;;;13.90;82.90;;;;;;4998096;28;20032;-75
2022/05/30 05:59:05;;;;;;;6.90;1.90;;;13.80;83.10;;;;;;4982092;28;20034;-71
2022/05/30 06:01:34;;;;;;;16.00;2.47;;;13.90;83.30;;;;;;4985369;28;20070;-71
2022/05/30 06:04:04;;;;;;;9.98;2.15;;;13.80;83.30;;;;;;4976570;28;20067;-71
2022/05/30 06:06:52;;;;;;;10.35;2.42;;;13.90;83.60;;;;;;4982979;28;20086;-70
2022/05/30 06:09:24;;;;;;;10.60;2.10;;;14.00;83.60;;;;;;4979137;28;20045;-71
2022/05/30 06:11:53;;;;;;;14.02;2.40;;;14.00;83.00;;;;;;4968086;28;20064;-72
2022/05/30 06:14:21;;;;;;;9.23;1.60;;;14.10;82.60;;;;;;4985523;28;20030;-71
2022/05/30 06:16:49;;;;;;;12.38;2.10;;;14.20;82.60;;;;;;4982130;28;20662;-71
2022/05/30 06:19:18;;;;;;;11.77;2.70;;;14.40;82.00;;;;;;4976826;28;20040;-71
2022/05/30 06:21:44;;;;;;;10.05;2.65;;;14.70;80.80;;;;;;4984857;28;20033;-72
2022/05/30 06:24:12;;;;;;;10.15;2.10;;;15.10;79.30;;;;;;4974180;28;20030;-71
2022/05/30 06:27:15;;;;;;;10.10;2.22;;;15.60;77.80;;;;;;4973635;28;20034;-71
2022/05/30 06:29:59;;;;;;;6.30;2.30;;;15.80;75.60;;;;;;4992592;28;20045;-73
2022/05/30 06:32:26;;;;;;;7.22;2.08;;;15.60;76.20;;;;;;4983689;28;20497;-72
2022/05/30 06:34:57;;;;;;;5.90;2.70;;;15.40;76.20;;;;;;4974636;28;20035;-72
2022/05/30 06:37:23;;;;;;;7.78;2.25;;;15.20;76.00;;;;;;4996142;28;20045;-72
2022/05/30 06:39:52;;;;;;;6.90;1.77;;;15.20;76.40;;;;;;4983513;28;20030;-72
2022/05/30 06:42:36;;;;;;;8.63;2.05;;;15.10;76.40;;;;;;4991051;28;20044;-72
2022/05/30 06:45:20;;;;;;;5.00;1.70;;;15.10;75.60;;;;;;4996676;28;20516;-71
2022/05/30 06:48:05;;;;;;;9.90;2.28;;;15.20;75.50;;;;;;4996984;28;20045;-70
2022/05/30 06:51:05;;;;;;;5.10;2.10;;;15.50;74.20;;;;;;4985318;28;20121;-72
2022/05/30 06:53:35;;;;;;;9.75;2.25;;;16.00;72.50;;;;;;4998872;28;20049;-71
2022/05/30 06:56:02;;;;;;;4.88;2.20;;;16.30;70.90;;;;;;4983576;28;20521;-71
2022/05/30 06:58:33;;;;;;;11.15;2.38;;;16.50;70.70;;;;;;4982778;28;20022;-71
2022/05/30 07:01:01;;;;;;;7.15;2.20;;;16.40;70.80;;;;;;4981341;28;20030;-71
2022/05/30 07:03:33;;;;;;;7.95;2.10;;;16.20;70.80;;;;;;4997503;28;20018;-71
2022/05/30 07:06:20;;;;;;;7.03;2.35;;;16.10;71.20;;;;;;4983475;28;20046;-72
2022/05/30 07:09:15;;;;;;;6.55;2.28;;;16.20;71.80;;;;;;4965774;28;20058;-72
2022/05/30 07:11:58;;;;;;;5.45;1.77;;;16.40;70.90;;;;;;4972684;28;20034;-72
2022/05/30 07:14:26;;;;;;;6.05;2.08;;;16.50;69.90;;;;;;4989869;28;20530;-71
2022/05/30 07:16:51;;;;;;;7.70;1.95;;;16.60;69.70;;;;;;4978743;28;20117;-72
2022/05/30 07:19:18;;;;;;;9.07;1.95;;;16.80;69.00;;;;;;4977896;28;20030;-72
2022/05/30 07:21:49;;;;;;;5.13;1.80;;;16.80;68.60;;;;;;4976333;28;20427;-72
2022/05/30 07:24:34;;;;;;;8.43;2.03;;;16.90;69.00;;;;;;4994472;28;20056;-73
2022/05/30 07:27:18;;;;;;;4.65;1.42;;;17.20;68.20;;;;;;4992010;28;20088;-71
2022/05/30 07:30:04;;;;;;;5.47;1.58;;;17.50;66.40;;;;;;4996069;28;20068;-72
2022/05/30 07:32:49;;;;;;;10.10;2.03;;;17.70;64.30;;;;;;4992712;28;20084;-72
2022/05/30 07:35:34;;;;;;;4.25;1.38;;;17.80;64.00;;;;;;4993668;28;20476;-71
2022/05/30 07:38:19;;;;;;;7.07;1.70;;;18.00;63.70;;;;;;4994034;28;20121;-71
2022/05/30 07:41:04;;;;;;;7.45;1.88;;;18.20;62.30;;;;;;4992264;28;20517;-71
2022/05/30 07:43:40;;;;;;;9.05;1.80;;;18.50;61.70;;;;;;4976854;28;20033;-71
2022/05/30 07:46:29;;;;;;;6.00;1.48;;;18.60;61.00;;;;;;4980635;28;20120;-71
2022/05/30 07:49:15;;;;;;;7.45;1.38;;;18.40;60.90;;;;;;4973711;28;20096;-72
2022/05/30 07:52:17;;;;;;;4.15;1.40;;;18.40;60.70;;;;;;4939063;29;20043;-71
2022/05/30 07:55:06;;;;;;;7.50;1.95;;;18.30;61.60;;;;;;4963403;28;20045;-71
2022/05/30 07:57:50;;;;;;;4.72;1.25;;;18.00;61.10;;;;;;4973465;28;20714;-72
2022/05/30 08:00:18;;;;;;;5.85;1.20;;;17.80;61.90;;;;;;4973329;28;20026;-72
2022/05/30 08:02:50;;;;;;;6.25;1.35;;;17.60;62.80;;;;;;5000190;28;20030;-71
2022/05/30 08:05:18;;;;;;;6.57;1.40;;;17.70;62.00;;;;;;4983970;28;20498;-71
2022/05/30 08:08:19;;;;;;;4.60;1.40;;;17.90;62.30;;;;;;4957328;28;20038;-71
2022/05/30 08:10:50;;;;;;;4.53;1.35;;;18.10;61.40;;;;;;4983513;28;20091;-72
2022/05/30 08:13:17;;;;;;;5.38;1.30;;;18.10;60.80;;;;;;4982640;28;20104;-71
2022/05/30 08:15:46;;;;;;;8.40;1.48;;;18.20;62.00;;;;;;4985873;28;20040;-72
2022/05/30 08:18:22;;;;;;;8.63;1.33;;;18.40;60.20;;;;;;4978414;28;20487;-72
2022/05/30 08:20:51;;;;;;;4.68;1.50;;;18.20;60.60;;;;;;4980398;28;20034;-71
2022/05/30 08:23:18;;;;;;;5.07;1.27;;;18.40;61.20;;;;;;4981016;28;20350;-71
2022/05/30 08:25:45;;;;;;;5.97;1.33;;;18.60;60.50;;;;;;4979143;28;20030;-72
2022/05/30 08:28:13;;;;;;;4.35;1.10;;;18.60;59.40;;;;;;4985198;28;20026;-71
2022/05/30 08:30:40;;;;;;;4.55;1.40;;;18.40;59.80;;;;;;4999397;28;20505;-72
2022/05/30 08:33:32;;;;;;;7.20;1.48;;;18.40;60.40;;;;;;4973205;28;20128;-72
2022/05/30 08:36:17;;;;;;;3.65;1.70;;;18.40;60.40;;;;;;5002450;28;20045;-72
2022/05/30 08:38:43;;;;;;;2.72;0.95;;;18.40;60.10;;;;;;4978394;28;20066;-72
2022/05/30 08:44:16;;;;;;;3.78;0.90;;;18.50;59.50;;;;;;4973319;28;20085;-71
2022/05/30 08:47:54;;;;;;;3.97;1.52;;;18.00;60.00;;;;;;4977915;28;20039;-73
2022/05/30 08:50:26;;;;;;;4.00;1.35;;;17.70;61.40;;;;;;4983680;28;20056;-73
2022/05/30 08:53:01;;;;;;;3.08;0.95;;;17.80;61.00;;;;;;4996172;28;20033;-73
2022/05/30 08:55:47;;;;;;;1.58;0.80;;;18.00;60.00;;;;;;4994596;28;20034;-72
2022/05/30 08:58:59;;;;;;;3.85;0.88;;;18.10;59.40;;;;;;4980055;28;20548;-72
2022/05/30 09:01:41;;;;;;;2.25;0.80;;;18.40;58.80;;;;;;4981064;28;20027;-72
2022/05/30 09:04:36;;;;;;;3.83;1.20;;;18.80;56.30;;;;;;4976035;28;20472;-72
2022/05/30 09:07:14;;;;;;;3.13;1.00;;;18.90;55.80;;;;;;4995654;28;20033;-72
2022/05/30 09:09:54;;;;;;;3.17;0.80;;;19.00;56.40;;;;;;5001043;28;20045;-73
2022/05/30 09:13:05;;;;;;;4.28;1.02;;;19.40;54.70;;;;;;4993656;28;20084;-72
2022/05/30 09:15:43;;;;;;;2.35;1.25;;;19.80;53.50;;;;;;4972524;28;20498;-72
2022/05/30 09:18:27;;;;;;;4.80;1.40;;;20.00;52.50;;;;;;4977474;28;20030;-72
2022/05/30 09:20:54;;;;;;;2.40;0.70;;;19.90;52.30;;;;;;4997746;28;20034;-72
2022/05/30 09:23:24;;;;;;;3.65;0.88;;;19.80;52.20;;;;;;4997988;28;20743;-72
2022/05/30 09:25:56;;;;;;;4.25;0.90;;;19.50;52.20;;;;;;4974942;28;20053;-72
2022/05/30 09:28:36;;;;;;;4.70;0.90;;;19.30;53.30;;;;;;4991510;28;20405;-72
2022/05/30 09:31:21;;;;;;;4.28;1.20;;;19.50;54.00;;;;;;4989364;28;20084;-71
2022/05/30 09:34:33;;;;;;;3.07;0.90;;;19.30;53.90;;;;;;4992332;28;20038;-71
2022/05/30 09:37:28;;;;;;;3.10;1.00;;;18.60;56.30;;;;;;4969261;28;20285;-72
2022/05/30 09:40:14;;;;;;;2.03;1.10;;;18.30;57.90;;;;;;4999709;28;20497;-71
2022/05/30 09:43:25;;;;;;;2.47;0.65;;;18.20;57.60;;;;;;4979816;28;20030;-71
2022/05/30 09:45:51;;;;;;;3.90;0.90;;;18.60;57.10;;;;;;4984214;28;20053;-71
2022/05/30 09:49:12;;;;;;;4.72;1.23;;;19.30;55.80;;;;;;4998743;28;20037;-71
2022/05/30 09:51:44;;;;;;;5.13;1.33;;;20.10;53.80;;;;;;4994391;28;20516;-71
2022/05/30 09:54:30;;;;;;;4.72;1.60;;;20.50;52.60;;;;;;4983349;28;20490;-71
2022/05/30 09:57:18;;;;;;;4.45;1.13;;;20.80;51.20;;;;;;4971952;28;20144;-71
2022/05/30 10:00:13;;;;;;;2.67;0.85;;;20.90;50.70;;;;;;4990193;28;20434;-71
2022/05/30 10:02:46;;;;;;;5.57;1.05;;;21.10;49.80;;;;;;4992521;28;20128;-72
2022/05/30 10:05:26;;;;;;;5.70;1.13;;;21.10;50.80;;;;;;4973796;28;20122;-71
2022/05/30 10:08:26;;;;;;;2.90;1.00;;;21.20;49.60;;;;;;4976539;28;20033;-71
2022/05/30 10:11:32;;;;;;;2.60;0.80;;;21.50;50.20;;;;;;4982954;28;20769;-71
2022/05/30 10:14:15;;;;;;;2.58;0.57;;;21.80;50.00;;;;;;4998865;28;20039;-72
2022/05/30 10:17:32;;;;;;;1.90;0.70;;;22.00;47.70;;;;;;4997628;28;20125;-72
2022/05/30 10:20:07;;;;;;;1.95;0.95;;;22.20;45.40;;;;;;4980687;28;20096;-72
2022/05/30 10:30:08;;;;;;;1.67;0.73;;;22.40;45.40;;;;;;4993437;28;20736;-72
2022/05/30 10:32:56;;;;;;;3.03;1.05;;;22.10;46.40;;;;;;4994842;28;20429;-72
2022/05/30 10:35:31;;;;;;;2.05;0.70;;;22.10;46.50;;;;;;4967630;28;20498;-72
2022/05/30 10:38:06;;;;;;;2.92;1.00;;;22.20;46.00;;;;;;4980261;28;20042;-72
2022/05/30 10:41:01;;;;;;;2.58;0.73;;;21.80;45.00;;;;;;4971818;28;20114;-72
2022/05/30 10:43:33;;;;;;;3.38;1.08;;;21.60;46.60;;;;;;4971805;28;20064;-72
2022/05/30 10:46:06;;;;;;;3.42;0.90;;;21.40;47.50;;;;;;4981088;28;20117;-73
2022/05/30 10:48:39;;;;;;;4.18;0.90;;;21.60;48.40;;;;;;4975670;28;20456;-72
2022/05/30 10:51:28;;;;;;;2.83;0.80;;;21.80;47.80;;;;;;4974798;28;20139;-71
2022/05/30 10:54:10;;;;;;;3.72;1.00;;;22.00;45.70;;;;;;4994913;28;20079;-71
2022/05/30 10:57:00;;;;;;;2.78;1.08;;;22.10;45.40;;;;;;4991647;28;20064;-71
2022/05/30 10:59:37;;;;;;;4.63;0.70;;;22.10;45.70;;;;;;4980227;28;20029;-71
2022/05/30 11:02:22;;;;;;;2.67;1.00;;;22.00;45.70;;;;;;4976992;28;20069;-72
2022/05/30 11:05:08;;;;;;;7.50;1.00;;;21.90;45.40;;;;;;4982402;28;20029;-72
2022/05/30 11:07:53;;;;;;;2.08;1.08;;;21.90;45.50;;;;;;4972518;28;20050;-71
2022/05/30 11:10:22;;;;;;;4.18;0.90;;;21.80;46.40;;;;;;4993716;28;20099;-71
2022/05/30 11:13:12;;;;;;;2.00;0.85;;;21.70;47.00;;;;;;4995786;28;20027;-72
2022/05/30 11:15:52;;;;;;;3.75;0.95;;;21.60;47.30;;;;;;4975729;28;20108;-71
2022/05/30 11:18:51;;;;;;;3.70;0.93;;;21.20;47.50;;;;;;4988841;28;20052;-70
2022/05/30 11:22:03;;;;;;;1.98;0.82;;;20.80;47.70;;;;;;4944825;28;20800;-72
2022/05/30 11:24:31;;;;;;;2.28;0.90;;;20.60;49.10;;;;;;4986406;28;20025;-72
2022/05/30 11:27:06;;;;;;;2.80;0.80;;;20.40;50.50;;;;;;4997629;28;20026;-71
2022/05/30 11:30:00;;;;;;;4.22;1.23;;;20.20;49.00;;;;;;4995847;28;20026;-71
2022/05/30 11:32:55;;;;;;;3.67;0.90;;;20.10;49.40;;;;;;4993899;28;20030;-71
2022/05/30 11:35:33;;;;;;;3.97;1.00;;;20.30;49.90;;;;;;4995444;28;20037;-71
2022/05/30 11:38:01;;;;;;;2.15;0.90;;;20.70;49.40;;;;;;4988414;28;20038;-71
2022/05/30 11:40:34;;;;;;;3.63;0.98;;;20.90;48.90;;;;;;4998108;28;20045;-71
2022/05/30 11:43:27;;;;;;;3.30;0.93;;;21.30;48.20;;;;;;4992174;28;20556;-72
2022/05/30 11:45:58;;;;;;;3.15;1.23;;;21.10;47.90;;;;;;4995146;28;20025;-71
2022/05/30 11:48:48;;;;;;;6.03;1.05;;;20.70;48.30;;;;;;4994438;28;20053;-73
2022/05/30 11:51:20;;;;;;;2.55;1.05;;;20.10;49.60;;;;;;4995040;28;20057;-73
2022/05/30 11:54:03;;;;;;;4.03;0.98;;;19.90;50.90;;;;;;4978998;28;20025;-72
2022/05/30 11:56:44;;;;;;;1.15;0.65;;;19.80;51.30;;;;;;4990236;28;20043;-72
2022/05/30 11:59:44;;;;;;;3.85;0.88;;;19.90;50.60;;;;;;4992579;28;20042;-72
2022/05/30 12:02:22;;;;;;;1.73;0.90;;;19.90;50.10;;;;;;4992376;28;20037;-73
2022/05/30 12:04:53;;;;;;;0.82;0.80;;;19.90;48.00;;;;;;4993703;28;20033;-73
2022/05/30 12:07:37;;;;;;;2.45;0.88;;;20.10;50.00;;;;;;4996618;28;20038;-73
2022/05/30 12:10:18;;;;;;;3.15;1.38;;;20.00;48.80;;;;;;4998390;28;20034;-71
2022/05/30 12:12:55;;;;;;;2.72;0.75;;;19.80;49.50;;;;;;4990762;28;20119;-72
2022/05/30 12:15:27;;;;;;;4.10;1.23;;;19.90;50.10;;;;;;4972730;28;20110;-72
2022/05/30 12:24:15;;;;;;;3.17;1.17;;;20.50;49.10;;;;;;4988844;28;20049;-72
2022/05/30 12:26:56;;;;;;;4.32;1.20;;;20.50;49.40;;;;;;4988814;28;20802;-72
2022/05/30 12:29:51;;;;;;;3.13;0.95;;;20.60;47.80;;;;;;4992201;28;20182;-72
2022/05/30 12:32:36;;;;;;;3.22;1.00;;;20.90;48.10;;;;;;4993947;28;20736;-72
2022/05/30 12:35:18;;;;;;;3.40;0.90;;;21.10;47.30;;;;;;4971637;28;20084;-70
2022/05/30 12:37:51;;;;;;;2.63;0.85;;;21.00;47.00;;;;;;4993199;28;20141;-73
2022/05/30 12:40:26;;;;;;;2.95;1.00;;;20.70;48.00;;;;;;4995485;28;20046;-74
2022/05/30 12:43:23;;;;;;;1.03;0.90;;;20.50;47.50;;;;;;4975186;28;20544;-74
2022/05/30 12:46:09;;;;;;;3.38;0.77;;;20.70;47.60;;;;;;4988480;28;20054;-69
2022/05/30 12:48:39;;;;;;;0.70;0.70;;;20.90;46.50;;;;;;4997228;28;20129;-74
2022/05/30 12:51:29;;;;;;;2.80;1.05;;;20.80;46.40;;;;;;4994840;28;20044;-74
2022/05/30 12:53:54;;;;;;;5.53;0.80;;;20.50;47.60;;;;;;4997196;28;20724;-72
2022/05/30 12:56:38;;;;;;;2.00;0.73;;;20.20;48.60;;;;;;4991042;28;20089;-73
2022/05/30 12:59:04;;;;;;;2.17;0.70;;;20.10;48.90;;;;;;4996058;28;20509;-75
2022/05/30 13:01:49;;;;;;;1.83;0.80;;;20.10;47.50;;;;;;4991740;28;20034;-75
2022/05/30 13:04:26;;;;;;;5.60;1.10;;;19.90;48.80;;;;;;4994950;28;20042;-75
2022/05/30 13:06:58;;;;;;;3.53;0.82;;;19.90;48.10;;;;;;4991059;28;20045;-75
2022/05/30 13:09:40;;;;;;;3.33;1.25;;;20.00;47.90;;;;;;4999704;28;20061;-74
2022/05/30 13:12:14;;;;;;;4.45;0.90;;;20.10;47.90;;;;;;4990099;28;20142;-74
2022/05/30 13:14:48;;;;;;;1.75;0.82;;;20.10;47.50;;;;;;4995534;28;20045;-74
2022/05/30 13:17:26;;;;;;;2.83;0.80;;;20.00;47.40;;;;;;4999447;28;20042;-75
2022/05/30 13:19:52;;;;;;;1.40;0.70;;;20.00;47.50;;;;;;4996932;28;20038;-74
2022/05/30 13:22:41;;;;;;;3.80;0.70;;;20.10;48.10;;;;;;5000012;28;20053;-75
2022/05/30 13:25:11;;;;;;;2.05;0.90;;;20.00;47.30;;;;;;4997998;28;20704;-73
2022/05/30 13:27:37;;;;;;;3.20;0.93;;;19.70;48.00;;;;;;4991122;28;20414;-74
2022/05/30 13:30:08;;;;;;;2.78;0.68;;;19.70;49.00;;;;;;4996158;28;20095;-74
2022/05/30 13:32:35;;;;;;;2.78;0.40;;;19.60;48.70;;;;;;4993400;28;20084;-74
2022/05/30 13:35:06;;;;;;;3.05;0.73;;;19.50;48.80;;;;;;4997118;28;20030;-74
2022/05/30 13:37:35;;;;;;;0.85;0.50;;;19.60;48.50;;;;;;4994629;28;20058;-73
2022/05/30 13:40:06;;;;;;;2.70;0.65;;;19.80;48.30;;;;;;4993463;28;20034;-73
2022/05/30 13:42:56;;;;;;;2.35;0.77;;;20.00;47.70;;;;;;4996380;28;20029;-74
2022/05/30 13:45:27;;;;;;;1.27;0.60;;;20.00;48.20;;;;;;4981575;28;20073;-74
2022/05/30 13:48:06;;;;;;;3.10;0.85;;;19.90;47.70;;;;;;4993165;28;20037;-73
2022/05/30 13:50:44;;;;;;;3.60;0.60;;;19.80;47.80;;;;;;4996438;28;20034;-73
2022/05/30 13:53:10;;;;;;;2.83;0.90;;;19.80;48.70;;;;;;5001728;28;20035;-73
2022/05/30 13:55:39;;;;;;;3.83;0.88;;;19.90;48.20;;;;;;4996758;28;20029;-73
2022/05/30 13:58:05;;;;;;;2.88;0.88;;;19.90;47.90;;;;;;4991635;28;20554;-75
2022/05/30 14:00:36;;;;;;;1.70;0.73;;;19.90;48.10;;;;;;4994491;28;20040;-75